NKS2880 KFLL-KMCO
Flight info
| Callsign | NKS2880 |
|---|---|
| Flight time | N/A |
| Altitude | 22000 |
| Route | FRSBE2 WAPOM MUNGI1 |
| Aircraft | A320/M-SDE3FGHIRWY/LB1 |
Departure
| Time | 2026-05-04 02:29 |
|---|---|
| Airport | Fort Lauderdale Hollywood International Airport (KFLL) |
Arrival
| Time | N/A |
|---|---|
| Airport | Orlando International Airport (KMCO) |
| Time | Latitude | Longitude | Altitude | Speed | Heading |
|---|---|---|---|---|---|
| 2026-05-04 01:57 | 26.07341 | -80.14751 | 27 ft | 0 kts | 107° |
| 2026-05-04 02:16 | 26.07342 | -80.14754 | 23 ft | 1 kts | 107° |
| 2026-05-04 02:16 | 26.07344 | -80.14763 | 28 ft | 2 kts | 107° |
| 2026-05-04 02:17 | 26.07355 | -80.14799 | 27 ft | 7 kts | 93° |
| 2026-05-04 02:17 | 26.07322 | -80.14844 | 25 ft | 7 kts | 10° |
| 2026-05-04 02:17 | 26.07312 | -80.14846 | 26 ft | 0 kts | 357° |
| 2026-05-04 02:21 | 26.07317 | -80.14847 | 27 ft | 3 kts | 354° |
| 2026-05-04 02:22 | 26.07321 | -80.14848 | 25 ft | 0 kts | 351° |
| 2026-05-04 02:22 | 26.07354 | -80.14862 | 27 ft | 11 kts | 325° |
| 2026-05-04 02:22 | 26.07371 | -80.14887 | 21 ft | 2 kts | 294° |
| 2026-05-04 02:22 | 26.07380 | -80.14913 | 23 ft | 5 kts | 297° |
| 2026-05-04 02:23 | 26.07402 | -80.14947 | 22 ft | 7 kts | 311° |
| 2026-05-04 02:23 | 26.07448 | -80.14998 | 22 ft | 11 kts | 315° |
| 2026-05-04 02:23 | 26.07488 | -80.15082 | 21 ft | 14 kts | 277° |
| 2026-05-04 02:23 | 26.07490 | -80.15204 | 18 ft | 17 kts | 270° |
| 2026-05-04 02:24 | 26.07491 | -80.15339 | 16 ft | 18 kts | 270° |
| 2026-05-04 02:24 | 26.07492 | -80.15467 | 18 ft | 15 kts | 271° |
| 2026-05-04 02:24 | 26.07493 | -80.15571 | 19 ft | 12 kts | 270° |
| 2026-05-04 02:24 | 26.07493 | -80.15661 | 20 ft | 12 kts | 270° |
| 2026-05-04 02:25 | 26.07493 | -80.15765 | 20 ft | 15 kts | 270° |
| 2026-05-04 02:25 | 26.07494 | -80.15895 | 22 ft | 18 kts | 270° |
| 2026-05-04 02:25 | 26.07495 | -80.16025 | 25 ft | 15 kts | 270° |
| 2026-05-04 02:25 | 26.07496 | -80.16138 | 26 ft | 14 kts | 270° |
| 2026-05-04 02:26 | 26.07538 | -80.16212 | 27 ft | 11 kts | 348° |
| 2026-05-04 02:26 | 26.07570 | -80.16273 | 26 ft | 11 kts | 269° |
| 2026-05-04 02:26 | 26.07569 | -80.16364 | 30 ft | 13 kts | 270° |
| 2026-05-04 02:26 | 26.07570 | -80.16469 | 28 ft | 14 kts | 270° |
| 2026-05-04 02:27 | 26.07585 | -80.16554 | 25 ft | 8 kts | 306° |
| 2026-05-04 02:27 | 26.07599 | -80.16563 | 23 ft | 0 kts | 348° |
| 2026-05-04 02:27 | 26.07600 | -80.16563 | 23 ft | 1 kts | 351° |
| 2026-05-04 02:27 | 26.07657 | -80.16560 | 26 ft | 14 kts | 8° |
| 2026-05-04 02:28 | 26.07695 | -80.16487 | 24 ft | 9 kts | 91° |
| 2026-05-04 02:28 | 26.07693 | -80.16309 | 28 ft | 53 kts | 90° |
| 2026-05-04 02:28 | 26.07690 | -80.15626 | 17 ft | 122 kts | 90° |
| 2026-05-04 02:28 | 26.07671 | -80.14473 | 241 ft | 167 kts | 89° |
| 2026-05-04 02:29 | 26.07687 | -80.13113 | 905 ft | 185 kts | 87° |
| 2026-05-04 02:29 | 26.07736 | -80.11646 | 1481 ft | 200 kts | 87° |
| 2026-05-04 02:29 | 26.07830 | -80.10038 | 2014 ft | 216 kts | 86° |
| 2026-05-04 02:29 | 26.07945 | -80.08298 | 2507 ft | 230 kts | 86° |
| 2026-05-04 02:30 | 26.08064 | -80.06516 | 3218 ft | 232 kts | 86° |
| 2026-05-04 02:30 | 26.08358 | -80.04711 | 3691 ft | 247 kts | 65° |
| 2026-05-04 02:30 | 26.09618 | -80.03344 | 3894 ft | 276 kts | 21° |
| 2026-05-04 02:30 | 26.11577 | -80.03171 | 4101 ft | 288 kts | 343° |
| 2026-05-04 02:31 | 26.13520 | -80.04005 | 4118 ft | 313 kts | 335° |
| 2026-05-04 02:31 | 26.15613 | -80.04974 | 4163 ft | 337 kts | 336° |
| 2026-05-04 02:31 | 26.17855 | -80.05959 | 4243 ft | 355 kts | 337° |
| 2026-05-04 02:31 | 26.20187 | -80.06935 | 4370 ft | 354 kts | 338° |
| 2026-05-04 02:32 | 26.22394 | -80.07846 | 4492 ft | 322 kts | 338° |
| 2026-05-04 02:32 | 26.24401 | -80.08669 | 4592 ft | 293 kts | 338° |
| 2026-05-04 02:32 | 26.25642 | -80.09177 | 4656 ft | 282 kts | 338° |
| 2026-05-04 02:32 | 26.27457 | -80.09923 | 4758 ft | 277 kts | 337° |